Barbara E Bouchard — WBD6759 — position and weather

sailwx.info

Track history (hours):
 
Tides and Currents Weather Stations Pressure Air Temp Water Temp Dewpoint Dewpoint Depression Visibility Wind Speed Wind Dir Waves Ship Positions

Barbara E Bouchard

Owner: TUG BARBARA E BOUCHARD CORP, MELVILLE, NY. More information available from US FCC via Universal Licensing System and Coast Guard Vessel Documentation Center.

Last reported at 2017-Sep-15 17:41 UTC. Time now 2017-Sep-20 01:58 UTC.
Position N 27°44' W 082°32'.

Length 175 m; draft 8 m.

Type: Ship (hazmat cat D). MMSI: 367006520.

Date/timePositionNaut miles runAvg speedWind from/ knotsBaromVisibWave heightAir tempDewpointWater temp
2017-Sep-15 17:41N 27°44' W 082°32'210.5
2017-Sep-15 17:29N 27°46' W 082°31'5 9.8
2017-Sep-15 17:00N 27°49' W 082°27'510.2
2017-Sep-15 16:30N 27°54' W 082°26'1 2.1
2017-Sep-15 15:58N 27°55' W 082°27'0 0.0
2017-Sep-15 15:25N 27°55' W 082°27'0 0.0
2017-Sep-15 14:55N 27°55' W 082°27'0 0.0
2017-Sep-15 14:28N 27°55' W 082°27'0 0.2
2017-Sep-15 13:58N 27°55' W 082°27'0 0.0
2017-Sep-15 13:25N 27°55' W 082°27'0 0.0
2017-Sep-15 12:52N 27°55' W 082°27'0 0.0
2017-Sep-15 12:28N 27°55' W 082°27'0 0.0
2017-Sep-15 11:58N 27°55' W 082°27'0 0.0
2017-Sep-15 11:25N 27°55' W 082°27'0 0.0
2017-Sep-15 10:50N 27°55' W 082°27'0 0.0
2017-Sep-15 10:23N 27°55' W 082°27'0 0.0
2017-Sep-15 09:59N 27°55' W 082°27'0 0.0
2017-Sep-15 09:29N 27°55' W 082°27'0 0.0
2017-Sep-15 08:59N 27°55' W 082°27'0 0.0
2017-Sep-15 08:11N 27°55' W 082°27'0 0.0
2017-Sep-15 07:56N 27°55' W 082°27'0 0.0
2017-Sep-15 07:29N 27°55' W 082°27'0 0.0
2017-Sep-15 06:59N 27°55' W 082°27'0 0.0
2017-Sep-15 06:29N 27°55' W 082°27'0 0.0
2017-Sep-15 05:59N 27°55' W 082°27'0 0.0
2017-Sep-15 05:29N 27°55' W 082°27'0 0.0
2017-Sep-15 04:44N 27°55' W 082°27'0 0.0
2017-Sep-15 04:29N 27°55' W 082°27'0 0.0
2017-Sep-15 03:59N 27°55' W 082°27'0 0.0
2017-Sep-15 03:23N 27°55' W 082°27'0 0.0
2017-Sep-15 02:56N 27°55' W 082°27'0 0.0
2017-Sep-15 02:20N 27°55' W 082°27'0 0.0
2017-Sep-15 01:59N 27°55' W 082°27'0 0.0
2017-Sep-15 01:26N 27°55' W 082°27'0 0.0
2017-Sep-15 00:56N 27°55' W 082°27'0 0.0
2017-Sep-15 00:29N 27°55' W 082°27'0 0.0
2017-Sep-14 23:35N 27°55' W 082°27'0 0.1
2017-Sep-14 23:29N 27°55' W 082°27'0 0.0
2017-Sep-14 22:56N 27°55' W 082°27'0 0.0
2017-Sep-14 22:29N 27°55' W 082°27'0 0.0
2017-Sep-14 21:59N 27°55' W 082°27'0 0.0
2017-Sep-14 21:29N 27°55' W 082°27'0 0.2
2017-Sep-14 20:54N 27°55' W 082°27'0 0.0
2017-Sep-14 20:30N 27°55' W 082°27'0 0.0
2017-Sep-14 20:00N 27°55' W 082°27'2 3.1
2017-Sep-14 19:31N 27°54' W 082°26'4 7.0
2017-Sep-14 18:59N 27°50' W 082°27'4 8.1
2017-Sep-14 18:30N 27°47' W 082°30'  
2017-Sep-06 17:26N 27°41' W 082°35'4 9.2
2017-Sep-06 16:58N 27°44' W 082°32'4 8.7
2017-Sep-06 16:30N 27°48' W 082°30'4 8.6
2017-Sep-06 16:00N 27°51' W 082°27'4 8.5
2017-Sep-06 15:30N 27°55' W 082°27'0 0.1
2017-Sep-06 15:00N 27°55' W 082°27'0 0.0
2017-Sep-06 14:30N 27°55' W 082°27'0 0.0
2017-Sep-06 14:00N 27°55' W 082°27'0 0.2
2017-Sep-06 13:30N 27°55' W 082°27'0 0.0
2017-Sep-06 13:00N 27°55' W 082°27'0 0.0
2017-Sep-06 12:30N 27°55' W 082°27'0 0.0
2017-Sep-06 12:00N 27°55' W 082°27'0 0.0
2017-Sep-06 11:31N 27°55' W 082°27'0 0.0
2017-Sep-06 11:00N 27°55' W 082°27'0 0.0
2017-Sep-06 10:30N 27°55' W 082°27'0 0.0
2017-Sep-06 10:00N 27°55' W 082°27'0 0.0
2017-Sep-06 09:30N 27°55' W 082°27'0 0.0
2017-Sep-06 09:00N 27°55' W 082°27'0 0.0
2017-Sep-06 08:30N 27°55' W 082°27'0 0.0
2017-Sep-06 08:00N 27°55' W 082°27'0 0.0
2017-Sep-06 07:30N 27°55' W 082°27'0 0.0
2017-Sep-06 07:00N 27°55' W 082°27'0 0.0
2017-Sep-06 06:30N 27°55' W 082°27'0 0.0
2017-Sep-06 06:00N 27°55' W 082°27'0 0.0
2017-Sep-06 05:27N 27°55' W 082°27'0 0.0
2017-Sep-06 05:00N 27°55' W 082°27'0 0.0
2017-Sep-06 04:30N 27°55' W 082°27'0 0.0
2017-Sep-06 04:00N 27°55' W 082°27'0 0.0
2017-Sep-06 03:30N 27°55' W 082°27'0 0.0
2017-Sep-06 03:00N 27°55' W 082°27'0 0.0
2017-Sep-06 02:30N 27°55' W 082°27'0 0.0
2017-Sep-06 01:54N 27°55' W 082°27'0 0.0
2017-Sep-06 01:30N 27°55' W 082°27'0 0.0
2017-Sep-06 01:00N 27°55' W 082°27'0 0.0
2017-Sep-06 00:30N 27°55' W 082°27'0 0.0
2017-Sep-06 00:00N 27°55' W 082°27'0 0.0
2017-Sep-05 23:27N 27°55' W 082°27'0 0.0
2017-Sep-05 23:00N 27°55' W 082°27'0 0.0
2017-Sep-05 22:30N 27°55' W 082°27'0 0.0
2017-Sep-05 22:00N 27°55' W 082°27'0 0.0
2017-Sep-05 21:30N 27°55' W 082°27'0 0.0
2017-Sep-05 21:00N 27°55' W 082°27'0 0.0
2017-Sep-05 20:30N 27°55' W 082°27'0 0.0
2017-Sep-05 20:00N 27°55' W 082°27'0 0.0
2017-Sep-05 19:30N 27°55' W 082°27'0 0.0
2017-Sep-05 18:57N 27°55' W 082°27'0 0.0
2017-Sep-05 18:30N 27°55' W 082°27'0 0.0
2017-Sep-05 18:00N 27°55' W 082°27'  
Track history (hours):
 
Tides and Currents Weather Stations Pressure Air Temp Water Temp Dewpoint Dewpoint Depression Visibility Wind Speed Wind Dir Waves Ship Positions

Barbara E Bouchard

Owner: TUG BARBARA E BOUCHARD CORP, MELVILLE, NY. More information available from US FCC via Universal Licensing System and Coast Guard Vessel Documentation Center.

Last reported at 2017-Sep-15 17:41 UTC. Time now 2017-Sep-20 01:58 UTC.
Position N 27°44' W 082°32'.

Length 175 m; draft 8 m.

Type: Ship (hazmat cat D). MMSI: 367006520.

Date/timePositionNaut miles runAvg speedWind from/ knotsBaromVisibWave heightAir tempDewpointWater temp
2017-Sep-15 17:41N 27°44' W 082°32'210.5
2017-Sep-15 17:29N 27°46' W 082°31'5 9.8
2017-Sep-15 17:00N 27°49' W 082°27'510.2
2017-Sep-15 16:30N 27°54' W 082°26'1 2.1
2017-Sep-15 15:58N 27°55' W 082°27'0 0.0
2017-Sep-15 15:25N 27°55' W 082°27'0 0.0
2017-Sep-15 14:55N 27°55' W 082°27'0 0.0
2017-Sep-15 14:28N 27°55' W 082°27'0 0.2
2017-Sep-15 13:58N 27°55' W 082°27'0 0.0
2017-Sep-15 13:25N 27°55' W 082°27'0 0.0
2017-Sep-15 12:52N 27°55' W 082°27'0 0.0
2017-Sep-15 12:28N 27°55' W 082°27'0 0.0
2017-Sep-15 11:58N 27°55' W 082°27'0 0.0
2017-Sep-15 11:25N 27°55' W 082°27'0 0.0
2017-Sep-15 10:50N 27°55' W 082°27'0 0.0
2017-Sep-15 10:23N 27°55' W 082°27'0 0.0
2017-Sep-15 09:59N 27°55' W 082°27'0 0.0
2017-Sep-15 09:29N 27°55' W 082°27'0 0.0
2017-Sep-15 08:59N 27°55' W 082°27'0 0.0
2017-Sep-15 08:11N 27°55' W 082°27'0 0.0
2017-Sep-15 07:56N 27°55' W 082°27'0 0.0
2017-Sep-15 07:29N 27°55' W 082°27'0 0.0
2017-Sep-15 06:59N 27°55' W 082°27'0 0.0
2017-Sep-15 06:29N 27°55' W 082°27'0 0.0
2017-Sep-15 05:59N 27°55' W 082°27'0 0.0
2017-Sep-15 05:29N 27°55' W 082°27'0 0.0
2017-Sep-15 04:44N 27°55' W 082°27'0 0.0
2017-Sep-15 04:29N 27°55' W 082°27'0 0.0
2017-Sep-15 03:59N 27°55' W 082°27'0 0.0
2017-Sep-15 03:23N 27°55' W 082°27'0 0.0
2017-Sep-15 02:56N 27°55' W 082°27'0 0.0
2017-Sep-15 02:20N 27°55' W 082°27'0 0.0
2017-Sep-15 01:59N 27°55' W 082°27'0 0.0
2017-Sep-15 01:26N 27°55' W 082°27'0 0.0
2017-Sep-15 00:56N 27°55' W 082°27'0 0.0
2017-Sep-15 00:29N 27°55' W 082°27'0 0.0
2017-Sep-14 23:35N 27°55' W 082°27'0 0.1
2017-Sep-14 23:29N 27°55' W 082°27'0 0.0
2017-Sep-14 22:56N 27°55' W 082°27'0 0.0
2017-Sep-14 22:29N 27°55' W 082°27'0 0.0
2017-Sep-14 21:59N 27°55' W 082°27'0 0.0
2017-Sep-14 21:29N 27°55' W 082°27'0 0.2
2017-Sep-14 20:54N 27°55' W 082°27'0 0.0
2017-Sep-14 20:30N 27°55' W 082°27'0 0.0
2017-Sep-14 20:00N 27°55' W 082°27'2 3.1
2017-Sep-14 19:31N 27°54' W 082°26'4 7.0
2017-Sep-14 18:59N 27°50' W 082°27'4 8.1
2017-Sep-14 18:30N 27°47' W 082°30'  
2017-Sep-06 17:26N 27°41' W 082°35'4 9.2
2017-Sep-06 16:58N 27°44' W 082°32'4 8.7
2017-Sep-06 16:30N 27°48' W 082°30'4 8.6
2017-Sep-06 16:00N 27°51' W 082°27'4 8.5
2017-Sep-06 15:30N 27°55' W 082°27'0 0.1
2017-Sep-06 15:00N 27°55' W 082°27'0 0.0
2017-Sep-06 14:30N 27°55' W 082°27'0 0.0
2017-Sep-06 14:00N 27°55' W 082°27'0 0.2
2017-Sep-06 13:30N 27°55' W 082°27'0 0.0
2017-Sep-06 13:00N 27°55' W 082°27'0 0.0
2017-Sep-06 12:30N 27°55' W 082°27'0 0.0
2017-Sep-06 12:00N 27°55' W 082°27'0 0.0
2017-Sep-06 11:31N 27°55' W 082°27'0 0.0
2017-Sep-06 11:00N 27°55' W 082°27'0 0.0
2017-Sep-06 10:30N 27°55' W 082°27'0 0.0
2017-Sep-06 10:00N 27°55' W 082°27'0 0.0
2017-Sep-06 09:30N 27°55' W 082°27'0 0.0
2017-Sep-06 09:00N 27°55' W 082°27'0 0.0
2017-Sep-06 08:30N 27°55' W 082°27'0 0.0
2017-Sep-06 08:00N 27°55' W 082°27'0 0.0
2017-Sep-06 07:30N 27°55' W 082°27'0 0.0
2017-Sep-06 07:00N 27°55' W 082°27'0 0.0
2017-Sep-06 06:30N 27°55' W 082°27'0 0.0
2017-Sep-06 06:00N 27°55' W 082°27'0 0.0
2017-Sep-06 05:27N 27°55' W 082°27'0 0.0
2017-Sep-06 05:00N 27°55' W 082°27'0 0.0
2017-Sep-06 04:30N 27°55' W 082°27'0 0.0
2017-Sep-06 04:00N 27°55' W 082°27'0 0.0
2017-Sep-06 03:30N 27°55' W 082°27'0 0.0
2017-Sep-06 03:00N 27°55' W 082°27'0 0.0
2017-Sep-06 02:30N 27°55' W 082°27'0 0.0
2017-Sep-06 01:54N 27°55' W 082°27'0 0.0
2017-Sep-06 01:30N 27°55' W 082°27'0 0.0
2017-Sep-06 01:00N 27°55' W 082°27'0 0.0
2017-Sep-06 00:30N 27°55' W 082°27'0 0.0
2017-Sep-06 00:00N 27°55' W 082°27'0 0.0
2017-Sep-05 23:27N 27°55' W 082°27'0 0.0
2017-Sep-05 23:00N 27°55' W 082°27'0 0.0
2017-Sep-05 22:30N 27°55' W 082°27'0 0.0
2017-Sep-05 22:00N 27°55' W 082°27'0 0.0
2017-Sep-05 21:30N 27°55' W 082°27'0 0.0
2017-Sep-05 21:00N 27°55' W 082°27'0 0.0
2017-Sep-05 20:30N 27°55' W 082°27'0 0.0
2017-Sep-05 20:00N 27°55' W 082°27'0 0.0
2017-Sep-05 19:30N 27°55' W 082°27'0 0.0
2017-Sep-05 18:57N 27°55' W 082°27'0 0.0
2017-Sep-05 18:30N 27°55' W 082°27'0 0.0
2017-Sep-05 18:00N 27°55' W 082°27'  

Dump ship's entire track history